createdAt,value
2018-09-13T00:01:43.420Z,9.10
2018-09-13T00:04:11.964Z,9.97
2018-09-13T00:06:40.489Z,10.83
2018-09-13T00:09:09.999Z,10.97
2018-09-13T00:11:38.922Z,9.63
2018-09-13T00:14:07.527Z,11.93
2018-09-13T00:16:42.700Z,10.97
2018-09-13T00:19:18.330Z,9.53
2018-09-13T00:21:53.946Z,9.83
2018-09-13T00:24:28.531Z,10.30
2018-09-13T00:27:02.741Z,11.67
2018-09-13T00:29:36.522Z,10.90
2018-09-13T00:32:05.264Z,9.93
2018-09-13T00:34:33.790Z,9.70
2018-09-13T00:37:02.526Z,10.50
2018-09-13T00:39:31.031Z,10.60
2018-09-13T00:41:59.565Z,10.43
2018-09-13T00:44:28.066Z,9.67
2018-09-13T00:46:56.612Z,11.43
2018-09-13T00:49:25.161Z,12.07
2018-09-13T00:51:53.773Z,10.80
2018-09-13T00:54:22.778Z,12.13
2018-09-13T00:56:51.320Z,12.00
2018-09-13T00:59:19.833Z,11.53
2018-09-13T01:01:48.364Z,12.27
2018-09-13T01:04:16.923Z,10.33
2018-09-13T01:06:45.489Z,11.33
2018-09-13T01:09:13.993Z,14.47
2018-09-13T01:11:42.566Z,12.83
2018-09-13T01:14:11.076Z,13.83
2018-09-13T01:16:39.645Z,13.97
2018-09-13T01:19:08.158Z,14.83
2018-09-13T01:21:36.720Z,14.70
2018-09-13T01:24:05.273Z,13.70
2018-09-13T01:26:33.824Z,13.70
2018-09-13T01:29:02.417Z,14.40
2018-09-13T01:31:30.932Z,13.73
2018-09-13T01:33:59.476Z,13.27
2018-09-13T01:36:27.991Z,13.43
2018-09-13T01:38:56.824Z,13.50
2018-09-13T01:41:25.405Z,12.90
2018-09-13T01:43:53.991Z,12.87
2018-09-13T01:46:22.538Z,13.30
2018-09-13T01:48:51.092Z,15.13
2018-09-13T01:51:19.609Z,14.57
2018-09-13T01:53:48.159Z,14.73
2018-09-13T01:56:16.673Z,16.37
2018-09-13T01:58:45.229Z,15.57
2018-09-13T02:01:13.732Z,15.40
2018-09-13T02:03:42.297Z,14.63
2018-09-13T02:06:10.849Z,14.13
2018-09-13T02:08:39.397Z,15.47
2018-09-13T02:11:07.912Z,15.13
2018-09-13T02:13:36.461Z,14.10
2018-09-13T02:16:04.997Z,14.60
2018-09-13T02:18:33.604Z,14.73
2018-09-13T02:21:02.128Z,14.17
2018-09-13T02:23:30.682Z,17.43
2018-09-13T02:25:59.193Z,18.43
2018-09-13T02:28:27.752Z,18.37
2018-09-13T02:30:56.277Z,19.80
2018-09-13T02:33:24.875Z,18.87
2018-09-13T02:35:53.437Z,21.17
2018-09-13T02:38:21.981Z,20.73
2018-09-13T02:40:50.598Z,20.40
2018-09-13T02:43:19.140Z,16.97
2018-09-13T02:45:47.654Z,18.70
2018-09-13T02:48:16.213Z,16.97
2018-09-13T02:50:44.733Z,18.10
2018-09-13T02:53:13.285Z,20.53
2018-09-13T02:55:41.792Z,17.33
2018-09-13T02:58:10.358Z,17.77
2018-09-13T03:00:38.911Z,19.27
2018-09-13T03:03:07.460Z,21.67
2018-09-13T03:05:36.009Z,18.07
2018-09-13T03:08:04.582Z,20.60
2018-09-13T03:10:33.106Z,19.33
2018-09-13T03:13:01.661Z,19.00
2018-09-13T03:15:30.191Z,19.70
2018-09-13T03:17:58.771Z,19.77
2018-09-13T03:20:27.376Z,20.57
2018-09-13T03:22:55.954Z,20.87
2018-09-13T03:25:24.509Z,20.87
2018-09-13T03:27:53.185Z,21.27
2018-09-13T03:30:21.796Z,18.90
2018-09-13T03:32:50.444Z,18.60
2018-09-13T03:35:19.252Z,18.80
2018-09-13T03:37:47.772Z,19.37
2018-09-13T03:40:16.338Z,20.10
2018-09-13T03:42:44.852Z,19.13
2018-09-13T03:45:13.440Z,18.80
2018-09-13T03:47:42.028Z,17.47
2018-09-13T03:50:10.628Z,19.30
2018-09-13T03:52:39.144Z,20.23
2018-09-13T03:55:07.733Z,22.27
2018-09-13T03:57:36.447Z,20.47
2018-09-13T04:00:05.154Z,20.77
2018-09-13T04:02:33.676Z,22.97
2018-09-13T04:05:02.272Z,22.07
2018-09-13T04:07:30.795Z,24.83
2018-09-13T04:09:59.349Z,21.20
2018-09-13T04:12:27.875Z,19.87
2018-09-13T04:14:56.438Z,22.13
2018-09-13T04:17:24.987Z,20.40
2018-09-13T04:19:53.630Z,21.00
2018-09-13T04:22:22.165Z,19.60
2018-09-13T04:24:50.717Z,20.20
2018-09-13T04:27:19.236Z,20.47
2018-09-13T04:29:47.784Z,19.97
2018-09-13T04:32:16.293Z,19.10
2018-09-13T04:34:44.841Z,18.87
2018-09-13T04:37:13.362Z,19.37
2018-09-13T04:39:41.909Z,20.27
2018-09-13T04:42:10.432Z,21.23
2018-09-13T04:44:38.979Z,22.57
2018-09-13T04:47:07.496Z,22.07
2018-09-13T04:49:36.057Z,22.67
2018-09-13T04:52:06.045Z,24.17
2018-09-13T04:54:35.090Z,24.73
2018-09-13T04:57:03.741Z,24.13
2018-09-13T04:59:34.463Z,24.77
2018-09-13T05:02:03.117Z,24.50
2018-09-13T05:04:31.713Z,24.67
2018-09-13T05:07:00.333Z,25.23
2018-09-13T05:09:33.417Z,27.57
2018-09-13T05:12:01.940Z,25.53
2018-09-13T05:14:38.382Z,26.63
2018-09-13T05:17:07.256Z,26.67
2018-09-13T05:19:35.825Z,24.53
2018-09-13T05:22:04.350Z,24.20
2018-09-13T05:24:33.425Z,24.30
2018-09-13T05:27:03.914Z,25.10
2018-09-13T05:29:32.925Z,22.73
2018-09-13T05:32:01.485Z,22.53
2018-09-13T05:34:30.014Z,24.23
2018-09-13T05:36:58.556Z,27.07
2018-09-13T05:39:27.350Z,23.67
2018-09-13T05:41:56.622Z,25.73
2018-09-13T05:44:25.195Z,24.93
2018-09-13T05:46:53.748Z,26.27
2018-09-13T05:49:22.260Z,25.97
2018-09-13T05:51:50.821Z,28.13
2018-09-13T05:54:19.349Z,28.10
2018-09-13T05:56:47.916Z,25.10
2018-09-13T05:59:16.431Z,27.20
2018-09-13T06:01:44.993Z,25.97
2018-09-13T06:04:13.540Z,25.67
2018-09-13T06:06:42.945Z,80.53
2018-09-13T06:09:11.454Z,42.20
2018-09-13T06:11:40.008Z,27.27
2018-09-13T06:14:08.529Z,25.70
2018-09-13T06:16:37.406Z,27.23
2018-09-13T06:19:05.985Z,26.67
2018-09-13T06:21:34.534Z,27.97
2018-09-13T06:24:03.065Z,28.03
2018-09-13T06:26:31.619Z,28.60
2018-09-13T06:29:00.164Z,29.20
2018-09-13T06:31:28.786Z,25.47
2018-09-13T06:33:57.328Z,22.53
2018-09-13T06:36:25.903Z,27.27
2018-09-13T06:38:54.450Z,23.57
2018-09-13T06:41:23.014Z,23.67
2018-09-13T06:43:51.581Z,24.17
2018-09-13T06:46:20.159Z,24.43
2018-09-13T06:48:48.732Z,24.27
2018-09-13T06:51:17.288Z,23.63
2018-09-13T06:53:45.795Z,23.47
2018-09-13T06:56:14.352Z,24.10
2018-09-13T06:58:42.876Z,25.27
2018-09-13T07:01:11.497Z,23.03
2018-09-13T07:03:40.075Z,24.00
2018-09-13T07:06:08.701Z,23.70
2018-09-13T07:08:37.243Z,22.37
2018-09-13T07:11:05.926Z,24.07
2018-09-13T07:13:34.476Z,22.33
2018-09-13T07:16:03.032Z,22.00
2018-09-13T07:18:31.557Z,22.63
2018-09-13T07:21:00.126Z,22.50
2018-09-13T07:23:28.723Z,22.67
2018-09-13T07:25:57.257Z,23.33
2018-09-13T07:28:25.849Z,23.50
2018-09-13T07:30:54.418Z,22.57
2018-09-13T07:33:22.958Z,24.60
2018-09-13T07:35:51.477Z,22.23
2018-09-13T07:38:20.038Z,21.43
2018-09-13T07:40:48.573Z,22.17
2018-09-13T07:43:17.215Z,21.73
2018-09-13T07:45:45.785Z,22.67
2018-09-13T07:48:14.333Z,25.50
2018-09-13T07:50:42.845Z,21.90
2018-09-13T07:53:11.430Z,20.67
2018-09-13T07:55:40.015Z,24.03
2018-09-13T07:58:08.652Z,22.40
2018-09-13T08:00:37.220Z,22.33
2018-09-13T08:03:06.052Z,22.67
2018-09-13T08:05:34.618Z,24.90
2018-09-13T08:08:03.177Z,23.40
2018-09-13T08:10:31.701Z,23.30
2018-09-13T08:13:00.366Z,21.27
2018-09-13T08:15:28.893Z,23.20
2018-09-13T08:17:57.432Z,22.57
2018-09-13T08:20:25.957Z,24.20
2018-09-13T08:22:54.848Z,26.63
2018-09-13T08:25:23.357Z,25.63
2018-09-13T08:27:51.904Z,23.37
2018-09-13T08:30:20.441Z,22.73
2018-09-13T08:32:49.006Z,24.77
2018-09-13T08:35:17.516Z,23.07
2018-09-13T08:37:46.061Z,23.20
2018-09-13T08:40:14.592Z,22.97
2018-09-13T08:42:43.144Z,25.83
2018-09-13T08:45:11.672Z,24.00
2018-09-13T08:47:40.355Z,24.00
2018-09-13T08:50:08.841Z,24.20
2018-09-13T08:52:37.401Z,23.77
2018-09-13T08:55:09.306Z,21.87
2018-09-13T08:57:38.145Z,24.00
2018-09-13T09:00:08.881Z,23.70
2018-09-13T09:02:37.445Z,22.53
2018-09-13T09:05:06.321Z,22.47
2018-09-13T09:07:35.373Z,22.87
2018-09-13T09:10:06.924Z,22.03
2018-09-13T09:12:35.534Z,22.27
2018-09-13T09:15:04.160Z,22.37
2018-09-13T09:17:32.740Z,23.70
2018-09-13T09:20:01.286Z,22.70
2018-09-13T09:22:29.811Z,23.10
2018-09-13T09:24:58.379Z,22.83
2018-09-13T09:27:27.525Z,21.20
2018-09-13T09:29:56.211Z,21.27
2018-09-13T09:32:25.092Z,21.47
2018-09-13T09:34:53.719Z,23.07
2018-09-13T09:37:22.234Z,21.53
2018-09-13T09:39:50.829Z,23.87
2018-09-13T09:42:19.325Z,20.27
2018-09-13T09:44:47.873Z,39.13
2018-09-13T09:47:16.417Z,52.63
2018-09-13T09:49:44.972Z,25.10
2018-09-13T09:52:13.557Z,27.13
2018-09-13T09:54:42.068Z,28.53
2018-09-13T09:57:10.635Z,20.63
2018-09-13T09:59:39.152Z,20.40
2018-09-13T10:02:12.690Z,21.10
2018-09-13T10:04:41.340Z,20.23
2018-09-13T10:07:09.829Z,20.47
2018-09-13T10:09:38.467Z,20.13
2018-09-13T10:12:06.961Z,20.87
2018-09-13T10:14:35.512Z,24.33
2018-09-13T10:17:09.350Z,22.00
2018-09-13T10:19:42.901Z,21.23
2018-09-13T10:22:16.756Z,19.53
2018-09-13T10:24:50.500Z,22.17
2018-09-13T10:27:24.479Z,20.20
2018-09-13T10:29:58.236Z,21.83
2018-09-13T10:32:31.931Z,21.67
2018-09-13T10:35:05.723Z,20.53
2018-09-13T10:37:40.385Z,22.80
2018-09-13T10:40:14.389Z,22.10
2018-09-13T10:42:48.037Z,23.33
2018-09-13T10:45:21.917Z,25.00
2018-09-13T10:47:56.924Z,22.70
2018-09-13T10:50:25.042Z,19.77
2018-09-13T10:53:04.863Z,20.47
2018-09-13T10:55:33.486Z,18.97
2018-09-13T10:58:02.025Z,18.83
2018-09-13T11:00:30.690Z,17.27
2018-09-13T11:02:59.825Z,19.03
2018-09-13T11:05:28.458Z,18.43
2018-09-13T11:07:57.033Z,20.17
2018-09-13T11:10:25.807Z,20.20
2018-09-13T11:12:59.441Z,17.60
2018-09-13T11:15:35.989Z,17.73
2018-09-13T11:18:05.953Z,16.97
2018-09-13T11:20:34.765Z,17.77
2018-09-13T11:23:03.288Z,18.33
2018-09-13T11:25:31.847Z,19.77
2018-09-13T11:28:00.370Z,17.80
2018-09-13T11:30:28.977Z,17.50
2018-09-13T11:32:57.773Z,18.83
2018-09-13T11:35:36.933Z,19.13
2018-09-13T11:38:05.649Z,19.77
2018-09-13T11:40:34.759Z,19.77
2018-09-13T11:43:03.161Z,20.67
2018-09-13T11:45:31.704Z,20.27
2018-09-13T11:48:00.216Z,18.30
2018-09-13T11:50:28.911Z,20.10
2018-09-13T11:52:57.748Z,18.83
2018-09-13T11:55:26.629Z,19.40
2018-09-13T11:57:57.082Z,19.77
2018-09-13T12:00:25.834Z,19.33
2018-09-13T12:02:54.404Z,24.57
2018-09-13T12:05:22.961Z,20.33
2018-09-13T12:07:51.580Z,19.60
2018-09-13T12:10:20.098Z,21.83
2018-09-13T12:12:49.576Z,21.97
2018-09-13T12:15:18.105Z,17.57
2018-09-13T12:17:46.695Z,18.33
2018-09-13T12:20:15.192Z,18.77
2018-09-13T12:22:43.735Z,20.63
2018-09-13T12:25:13.386Z,25.30
2018-09-13T12:27:43.840Z,29.00
2018-09-13T12:30:13.240Z,27.20
2018-09-13T12:32:44.473Z,25.27
2018-09-13T12:35:16.424Z,29.37
2018-09-13T12:37:49.433Z,28.47
2018-09-13T12:40:23.842Z,29.67
2018-09-13T12:42:56.208Z,31.27
2018-09-13T12:45:29.413Z,32.87
2018-09-13T12:48:03.743Z,26.97
2018-09-13T12:50:34.296Z,22.43
2018-09-13T12:53:06.692Z,24.90
2018-09-13T12:55:43.811Z,22.70
2018-09-13T12:58:14.069Z,23.27
2018-09-13T13:00:48.700Z,24.43
2018-09-13T13:03:22.233Z,24.43
2018-09-13T13:05:52.784Z,24.93
2018-09-13T13:08:22.942Z,25.83
2018-09-13T13:10:53.334Z,27.53
2018-09-13T13:13:30.282Z,27.17
2018-09-13T13:16:05.474Z,27.13
2018-09-13T13:18:37.817Z,28.77
2018-09-13T13:21:11.142Z,28.40
2018-09-13T13:23:44.099Z,29.63
2018-09-13T13:26:14.186Z,30.60
2018-09-13T13:28:42.774Z,32.03
2018-09-13T13:31:16.093Z,33.23
2018-09-13T13:33:51.318Z,34.33
2018-09-13T13:36:22.915Z,35.30
2018-09-13T13:38:55.208Z,33.57
2018-09-13T13:41:30.277Z,36.23
2018-09-13T13:44:02.156Z,37.10
2018-09-13T13:46:35.353Z,36.70
2018-09-13T13:49:05.049Z,37.60
2018-09-13T13:51:40.077Z,36.93
2018-09-13T13:54:14.337Z,37.07
2018-09-13T13:56:46.218Z,38.03
2018-09-13T13:59:16.532Z,37.87
2018-09-13T14:01:47.497Z,38.40
2018-09-13T14:04:20.448Z,39.60
2018-09-13T14:06:53.971Z,39.90
2018-09-13T14:09:27.792Z,37.73
2018-09-13T14:11:57.928Z,41.90
2018-09-13T14:14:29.647Z,40.07
2018-09-13T14:17:00.855Z,38.57
2018-09-13T14:19:32.885Z,38.00
2018-09-13T14:22:09.882Z,38.80
2018-09-13T14:24:47.006Z,40.00
2018-09-13T14:27:15.652Z,38.17
2018-09-13T14:29:48.672Z,39.77
2018-09-13T14:32:22.665Z,39.37
2018-09-13T14:34:55.474Z,41.33
2018-09-13T14:37:29.697Z,41.77
2018-09-13T14:40:02.900Z,33.50
2018-09-13T14:42:34.593Z,32.63
2018-09-13T14:45:04.519Z,30.63
2018-09-13T14:47:35.987Z,31.07
2018-09-13T14:50:10.952Z,29.63
2018-09-13T14:52:41.208Z,27.57
2018-09-13T14:55:11.193Z,28.47
2018-09-13T14:57:39.808Z,28.37
2018-09-13T15:00:12.786Z,28.37
2018-09-13T15:02:44.992Z,26.37
2018-09-13T15:05:18.775Z,26.70
2018-09-13T15:07:50.439Z,25.17
2018-09-13T15:10:21.621Z,24.27
2018-09-13T15:12:54.315Z,24.50
2018-09-13T15:15:26.896Z,24.40
2018-09-13T15:17:57.316Z,26.13
2018-09-13T15:20:29.108Z,24.03
2018-09-13T15:23:03.440Z,29.73
2018-09-13T15:25:32.151Z,27.03
2018-09-13T15:28:00.738Z,23.33
2018-09-13T15:30:29.293Z,24.53
2018-09-13T15:34:01.038Z,23.57
2018-09-13T15:36:33.802Z,22.30
2018-09-13T15:39:10.748Z,23.80
2018-09-13T15:41:40.927Z,22.73
2018-09-13T15:44:12.423Z,23.43
2018-09-13T15:46:41.673Z,23.10
2018-09-13T15:49:15.206Z,24.47
2018-09-13T15:51:50.260Z,23.37
2018-09-13T15:54:20.953Z,22.37
2018-09-13T15:56:49.787Z,22.00
2018-09-13T15:59:18.849Z,23.37
2018-09-13T16:01:47.548Z,21.77
2018-09-13T16:04:19.310Z,22.53
2018-09-13T16:06:48.588Z,23.27
2018-09-13T16:09:19.285Z,23.07
2018-09-13T16:11:49.548Z,20.47
2018-09-13T16:14:18.066Z,19.50
2018-09-13T16:16:46.706Z,20.27
2018-09-13T16:19:20.346Z,19.87
2018-09-13T16:21:50.620Z,19.23
2018-09-13T16:24:26.704Z,19.93
2018-09-13T16:26:55.921Z,19.70
2018-09-13T16:29:27.437Z,20.97
2018-09-13T16:32:00.583Z,19.73
2018-09-13T16:34:29.517Z,20.80
2018-09-13T16:37:11.205Z,22.53
2018-09-13T16:39:44.864Z,20.33
2018-09-13T16:42:18.720Z,21.20
2018-09-13T16:44:53.740Z,19.83
2018-09-13T16:47:29.268Z,20.40
2018-09-13T16:49:58.744Z,19.97
2018-09-13T16:52:28.040Z,19.77
2018-09-13T16:55:02.988Z,19.03
2018-09-13T16:57:31.528Z,19.47
2018-09-13T17:00:00.048Z,20.73
2018-09-13T17:02:28.608Z,20.30
2018-09-13T17:04:57.924Z,20.37
2018-09-13T17:07:26.567Z,21.53
2018-09-13T17:09:55.092Z,19.63
2018-09-13T17:12:24.485Z,18.73
2018-09-13T17:14:53.082Z,19.87
2018-09-13T17:17:21.636Z,18.63
2018-09-13T17:19:50.236Z,18.77
2018-09-13T17:22:18.784Z,16.83
2018-09-13T17:24:47.409Z,18.70
2018-09-13T17:27:16.036Z,18.30
2018-09-13T17:29:51.128Z,18.07
2018-09-13T17:32:20.116Z,17.80
2018-09-13T17:34:48.707Z,15.77
2018-09-13T17:37:17.251Z,17.57
2018-09-13T17:39:46.053Z,15.27
2018-09-13T17:42:14.740Z,15.23
2018-09-13T17:44:43.308Z,14.17
2018-09-13T17:47:11.828Z,14.67
2018-09-13T17:49:40.381Z,13.80
2018-09-13T17:52:09.053Z,13.00
2018-09-13T17:54:37.608Z,13.40
2018-09-13T17:57:06.289Z,13.13
2018-09-13T17:59:34.844Z,12.77
2018-09-13T18:02:03.364Z,11.40
2018-09-13T18:04:31.945Z,11.53
2018-09-13T18:07:00.510Z,12.67
2018-09-13T18:09:29.077Z,11.77
2018-09-13T18:11:57.877Z,11.63
2018-09-13T18:14:26.412Z,10.67
2018-09-13T18:16:54.917Z,11.20
2018-09-13T18:19:26.220Z,11.33
2018-09-13T18:21:54.784Z,11.37
2018-09-13T18:24:23.325Z,10.73
2018-09-13T18:26:51.848Z,9.97
2018-09-13T18:29:20.406Z,10.17
2018-09-13T18:31:50.486Z,9.80
2018-09-13T18:34:19.024Z,10.13
2018-09-13T18:36:47.541Z,10.10
2018-09-13T18:39:16.091Z,11.83
2018-09-13T18:41:44.600Z,11.37
2018-09-13T18:44:13.140Z,10.87
2018-09-13T18:46:41.660Z,11.17
2018-09-13T18:49:10.203Z,12.00
2018-09-13T18:51:38.732Z,11.80
2018-09-13T18:54:07.292Z,11.10
2018-09-13T18:56:35.840Z,10.83
2018-09-13T18:59:04.657Z,12.20
2018-09-13T19:01:33.321Z,11.00
2018-09-13T19:04:01.872Z,12.33
2018-09-13T19:06:30.420Z,11.73
2018-09-13T19:08:58.967Z,11.63
2018-09-13T19:11:27.745Z,11.53
2018-09-13T19:13:56.301Z,11.53
2018-09-13T19:16:25.276Z,12.87
2018-09-13T19:18:58.833Z,12.13
2018-09-13T19:21:28.606Z,13.83
2018-09-13T19:23:58.537Z,14.50
2018-09-13T19:26:27.808Z,15.03
2018-09-13T19:28:56.317Z,14.17
2018-09-13T19:31:24.877Z,14.50
2018-09-13T19:33:54.914Z,15.50
2018-09-13T19:36:26.474Z,17.43
2018-09-13T19:38:55.751Z,19.07
2018-09-13T19:41:25.065Z,19.07
2018-09-13T19:43:54.771Z,19.77
2018-09-13T19:46:24.125Z,28.47
2018-09-13T19:48:54.169Z,26.00
2018-09-13T19:51:22.804Z,22.90
2018-09-13T19:53:56.031Z,22.53
2018-09-13T19:56:36.289Z,23.20
2018-09-13T19:59:08.296Z,23.57
2018-09-13T20:01:41.556Z,23.67
2018-09-13T20:04:10.612Z,26.70
2018-09-13T20:06:42.501Z,30.67
2018-09-13T20:09:12.500Z,25.87
2018-09-13T20:11:44.636Z,30.07
2018-09-13T20:14:22.184Z,24.73
2018-09-13T20:16:50.919Z,28.47
2018-09-13T20:19:20.493Z,34.30
2018-09-13T20:21:49.940Z,29.97
2018-09-13T20:24:25.759Z,27.57
2018-09-13T20:26:55.069Z,26.63
2018-09-13T20:29:24.821Z,29.60
2018-09-13T20:32:05.334Z,27.40
2018-09-13T20:34:40.096Z,29.30
2018-09-13T20:37:16.551Z,30.00
2018-09-13T20:39:47.544Z,29.30
2018-09-13T20:42:16.291Z,29.07
2018-09-13T20:44:49.620Z,32.30
2018-09-13T20:47:20.423Z,31.00
2018-09-13T20:49:50.929Z,32.57
2018-09-13T20:52:19.588Z,35.37
2018-09-13T20:54:53.574Z,32.07
2018-09-13T20:57:27.934Z,35.17
2018-09-13T21:00:02.681Z,33.63
2018-09-13T21:02:34.492Z,31.83
2018-09-13T21:05:03.916Z,33.83
2018-09-13T21:07:33.572Z,36.43
2018-09-13T21:10:10.475Z,34.47
2018-09-13T21:12:41.834Z,35.50
2018-09-13T21:15:14.161Z,40.07
2018-09-13T21:17:43.620Z,38.73
2018-09-13T21:20:16.232Z,39.13
2018-09-13T21:22:46.279Z,41.20
2018-09-13T21:25:17.757Z,37.33
2018-09-13T21:27:46.372Z,36.97
2018-09-13T21:30:14.907Z,38.77
2018-09-13T21:32:45.567Z,41.00
2018-09-13T21:35:15.597Z,39.77
2018-09-13T21:37:46.035Z,41.20
2018-09-13T21:40:19.627Z,37.93
2018-09-13T21:42:51.242Z,44.70
2018-09-13T21:45:22.408Z,39.50
2018-09-13T21:47:51.699Z,41.43
2018-09-13T21:50:23.957Z,39.10
2018-09-13T21:52:55.375Z,41.50
2018-09-13T21:55:28.037Z,40.83
2018-09-13T21:57:58.625Z,43.27
2018-09-13T22:00:29.447Z,40.10
2018-09-13T22:03:01.528Z,36.73
2018-09-13T22:05:31.208Z,38.40
2018-09-13T22:08:01.546Z,37.63
2018-09-13T22:10:33.756Z,37.30
2018-09-13T22:13:06.438Z,38.60
2018-09-13T22:15:38.032Z,40.03
2018-09-13T22:18:11.206Z,39.30
2018-09-13T22:20:45.637Z,36.10
2018-09-13T22:23:17.649Z,34.17
2018-09-13T22:25:46.882Z,39.40
2018-09-13T22:28:15.689Z,39.87
2018-09-13T22:30:47.900Z,39.07
2018-09-13T22:33:22.216Z,39.70
2018-09-13T22:35:55.444Z,45.57
2018-09-13T22:38:26.471Z,44.07
2018-09-13T22:40:55.947Z,38.30
2018-09-13T22:43:34.690Z,39.47
2018-09-13T22:46:05.944Z,41.40
2018-09-13T22:48:40.337Z,38.23
2018-09-13T22:51:13.359Z,41.33
2018-09-13T22:53:47.201Z,35.70
2018-09-13T22:56:17.677Z,40.03
2018-09-13T22:58:50.195Z,39.40
2018-09-13T23:01:21.124Z,40.60
2018-09-13T23:03:53.594Z,40.00
2018-09-13T23:06:22.947Z,40.93
2018-09-13T23:08:54.451Z,39.67
2018-09-13T23:11:24.748Z,39.50
2018-09-13T23:13:55.421Z,39.30
2018-09-13T23:16:27.790Z,38.20
2018-09-13T23:18:57.673Z,37.73
2018-09-13T23:21:26.835Z,38.27
2018-09-13T23:23:55.423Z,41.13
2018-09-13T23:26:25.339Z,37.57
2018-09-13T23:28:54.629Z,34.83
2018-09-13T23:31:23.152Z,35.07
2018-09-13T23:33:51.706Z,34.73
2018-09-13T23:36:26.850Z,36.57
2018-09-13T23:38:55.467Z,33.77
2018-09-13T23:41:23.988Z,35.77
2018-09-13T23:43:53.644Z,37.27
2018-09-13T23:46:22.179Z,33.83
2018-09-13T23:48:50.725Z,33.40
2018-09-13T23:51:19.240Z,31.37
2018-09-13T23:53:47.825Z,34.73
2018-09-13T23:56:16.375Z,34.47
2018-09-13T23:58:44.936Z,34.57
